sensor_id;sensor_type;location;lat;lon;timestamp;pressure;altitude;pressure_sealevel;temperature;humidity
64294;BME280;50636;45.596;5.258;2023-02-02T00:01:49;100124.03;;;7.66;54.75
64294;BME280;50636;45.596;5.258;2023-02-02T00:04:18;100117.56;;;7.43;54.64
64294;BME280;50636;45.596;5.258;2023-02-02T00:06:44;100108.00;;;7.24;55.31
64294;BME280;50636;45.596;5.258;2023-02-02T00:09:17;100115.88;;;7.04;56.41
64294;BME280;50636;45.596;5.258;2023-02-02T00:11:44;100108.94;;;6.85;57.31
64294;BME280;50636;45.596;5.258;2023-02-02T00:14:10;100115.97;;;6.75;57.85
64294;BME280;50636;45.596;5.258;2023-02-02T00:16:58;100115.31;;;6.53;58.67
64294;BME280;50636;45.596;5.258;2023-02-02T00:19:26;100106.81;;;6.32;58.47
64294;BME280;50636;45.596;5.258;2023-02-02T00:21:53;100117.66;;;6.37;59.17
64294;BME280;50636;45.596;5.258;2023-02-02T00:24:19;100112.31;;;6.48;58.72
64294;BME280;50636;45.596;5.258;2023-02-02T00:26:51;100105.56;;;6.46;58.76
64294;BME280;50636;45.596;5.258;2023-02-02T00:29:19;100108.03;;;6.47;58.57
64294;BME280;50636;45.596;5.258;2023-02-02T00:31:45;100102.81;;;6.47;58.94
64294;BME280;50636;45.596;5.258;2023-02-02T00:34:12;100099.25;;;6.48;58.78
64294;BME280;50636;45.596;5.258;2023-02-02T00:36:38;100099.53;;;6.45;59.20
64294;BME280;50636;45.596;5.258;2023-02-02T00:39:05;100094.31;;;6.35;59.66
64294;BME280;50636;45.596;5.258;2023-02-02T00:41:30;100095.28;;;6.25;59.97
64294;BME280;50636;45.596;5.258;2023-02-02T00:43:56;100090.72;;;5.97;60.40
64294;BME280;50636;45.596;5.258;2023-02-02T00:46:41;100083.88;;;5.96;60.69
64294;BME280;50636;45.596;5.258;2023-02-02T00:49:07;100084.97;;;5.94;61.01
64294;BME280;50636;45.596;5.258;2023-02-02T00:51:34;100089.09;;;5.96;61.38
64294;BME280;50636;45.596;5.258;2023-02-02T00:54:00;100084.72;;;5.97;61.28
64294;BME280;50636;45.596;5.258;2023-02-02T00:56:26;100079.84;;;5.73;61.64
64294;BME280;50636;45.596;5.258;2023-02-02T00:58:52;100080.88;;;5.51;63.29
64294;BME280;50636;45.596;5.258;2023-02-02T01:01:19;100072.63;;;5.36;64.06
64294;BME280;50636;45.596;5.258;2023-02-02T01:03:47;100073.44;;;5.36;65.20
64294;BME280;50636;45.596;5.258;2023-02-02T01:06:13;100071.56;;;5.48;63.71
64294;BME280;50636;45.596;5.258;2023-02-02T01:08:38;100072.41;;;5.58;63.54
64294;BME280;50636;45.596;5.258;2023-02-02T01:11:05;100069.28;;;5.65;63.24
64294;BME280;50636;45.596;5.258;2023-02-02T01:13:31;100074.63;;;5.53;62.16
64294;BME280;50636;45.596;5.258;2023-02-02T01:15:59;100078.25;;;5.41;63.48
64294;BME280;50636;45.596;5.258;2023-02-02T01:18:26;100071.81;;;5.35;64.10
64294;BME280;50636;45.596;5.258;2023-02-02T01:21:00;100080.16;;;5.39;64.04
64294;BME280;50636;45.596;5.258;2023-02-02T01:23:26;100081.44;;;5.54;64.22
64294;BME280;50636;45.596;5.258;2023-02-02T01:25:56;100078.63;;;5.77;62.90
64294;BME280;50636;45.596;5.258;2023-02-02T01:28:23;100076.72;;;5.89;63.96
64294;BME280;50636;45.596;5.258;2023-02-02T01:30:49;100076.06;;;5.96;62.78
64294;BME280;50636;45.596;5.258;2023-02-02T01:33:15;100077.16;;;6.13;61.57
64294;BME280;50636;45.596;5.258;2023-02-02T01:35:55;100073.44;;;6.35;61.73
64294;BME280;50636;45.596;5.258;2023-02-02T01:38:22;100067.16;;;6.28;60.35
64294;BME280;50636;45.596;5.258;2023-02-02T01:40:50;100069.78;;;6.28;60.04
64294;BME280;50636;45.596;5.258;2023-02-02T01:43:23;100075.38;;;6.24;61.10
64294;BME280;50636;45.596;5.258;2023-02-02T01:45:53;100073.34;;;6.08;61.96
64294;BME280;50636;45.596;5.258;2023-02-02T01:48:31;100065.94;;;6.23;62.12
64294;BME280;50636;45.596;5.258;2023-02-02T01:51:03;100066.88;;;6.22;63.07
64294;BME280;50636;45.596;5.258;2023-02-02T01:53:29;100064.56;;;6.09;63.83
64294;BME280;50636;45.596;5.258;2023-02-02T01:55:56;100064.50;;;5.89;63.91
64294;BME280;50636;45.596;5.258;2023-02-02T01:58:28;100058.13;;;5.53;64.14
64294;BME280;50636;45.596;5.258;2023-02-02T02:00:55;100064.34;;;5.21;65.04
64294;BME280;50636;45.596;5.258;2023-02-02T02:03:25;100067.09;;;5.19;66.41
64294;BME280;50636;45.596;5.258;2023-02-02T02:06:00;100056.44;;;5.32;65.97
64294;BME280;50636;45.596;5.258;2023-02-02T02:08:29;100057.06;;;5.65;65.44
64294;BME280;50636;45.596;5.258;2023-02-02T02:10:56;100048.19;;;5.87;64.32
64294;BME280;50636;45.596;5.258;2023-02-02T02:13:23;100051.09;;;5.94;62.24
64294;BME280;50636;45.596;5.258;2023-02-02T02:22:06;100046.00;;;5.83;63.08
64294;BME280;50636;45.596;5.258;2023-02-02T02:28:19;100044.88;;;5.56;64.99
64294;BME280;50636;45.596;5.258;2023-02-02T02:34:23;100046.41;;;5.18;65.49
64294;BME280;50636;45.596;5.258;2023-02-02T02:36:50;100046.78;;;5.04;66.35
64294;BME280;50636;45.596;5.258;2023-02-02T02:39:44;100050.88;;;5.06;66.39
64294;BME280;50636;45.596;5.258;2023-02-02T02:42:20;100049.63;;;5.00;65.70
64294;BME280;50636;45.596;5.258;2023-02-02T02:44:48;100055.84;;;5.09;64.93
64294;BME280;50636;45.596;5.258;2023-02-02T02:47:15;100057.75;;;5.17;64.65
64294;BME280;50636;45.596;5.258;2023-02-02T02:49:45;100049.81;;;5.18;65.50
64294;BME280;50636;45.596;5.258;2023-02-02T02:52:11;100057.47;;;5.10;65.51
64294;BME280;50636;45.596;5.258;2023-02-02T02:54:44;100046.97;;;4.91;65.72
64294;BME280;50636;45.596;5.258;2023-02-02T02:57:34;100040.72;;;4.93;64.47
64294;BME280;50636;45.596;5.258;2023-02-02T03:00:41;100047.59;;;5.04;65.87
64294;BME280;50636;45.596;5.258;2023-02-02T03:10:59;100044.97;;;5.45;64.80
64294;BME280;50636;45.596;5.258;2023-02-02T03:13:27;100047.00;;;5.31;64.62
64294;BME280;50636;45.596;5.258;2023-02-02T03:15:53;100043.28;;;5.24;64.98
64294;BME280;50636;45.596;5.258;2023-02-02T03:18:22;100047.34;;;5.17;65.84
64294;BME280;50636;45.596;5.258;2023-02-02T03:20:49;100049.13;;;5.16;65.10
64294;BME280;50636;45.596;5.258;2023-02-02T03:23:14;100060.31;;;4.97;64.41
64294;BME280;50636;45.596;5.258;2023-02-02T03:25:40;100055.50;;;4.72;65.08
64294;BME280;50636;45.596;5.258;2023-02-02T03:28:06;100056.28;;;4.42;66.02
64294;BME280;50636;45.596;5.258;2023-02-02T03:30:32;100055.41;;;4.31;67.31
64294;BME280;50636;45.596;5.258;2023-02-02T03:32:59;100057.41;;;4.28;67.24
64294;BME280;50636;45.596;5.258;2023-02-02T03:35:25;100057.41;;;4.07;67.02
64294;BME280;50636;45.596;5.258;2023-02-02T03:37:51;100064.41;;;3.95;68.37
64294;BME280;50636;45.596;5.258;2023-02-02T03:40:18;100062.06;;;3.92;68.45
64294;BME280;50636;45.596;5.258;2023-02-02T03:42:43;100051.63;;;4.03;68.92
64294;BME280;50636;45.596;5.258;2023-02-02T03:45:09;100044.53;;;4.26;69.34
64294;BME280;50636;45.596;5.258;2023-02-02T03:47:35;100045.63;;;4.45;67.78
64294;BME280;50636;45.596;5.258;2023-02-02T03:50:01;100054.81;;;4.28;67.04
64294;BME280;50636;45.596;5.258;2023-02-02T03:52:26;100052.03;;;4.19;67.37
64294;BME280;50636;45.596;5.258;2023-02-02T03:54:52;100059.34;;;4.14;68.13
64294;BME280;50636;45.596;5.258;2023-02-02T03:57:18;100056.75;;;3.93;68.33
64294;BME280;50636;45.596;5.258;2023-02-02T03:59:44;100062.88;;;3.92;69.26
64294;BME280;50636;45.596;5.258;2023-02-02T04:02:09;100064.66;;;3.92;68.69
64294;BME280;50636;45.596;5.258;2023-02-02T04:04:35;100062.81;;;3.71;69.45
64294;BME280;50636;45.596;5.258;2023-02-02T04:07:00;100066.81;;;3.75;70.77
64294;BME280;50636;45.596;5.258;2023-02-02T04:09:26;100049.13;;;4.13;68.86
64294;BME280;50636;45.596;5.258;2023-02-02T04:11:52;100051.47;;;4.37;66.33
64294;BME280;50636;45.596;5.258;2023-02-02T04:14:19;100055.38;;;4.52;67.06
64294;BME280;50636;45.596;5.258;2023-02-02T04:16:44;100050.56;;;4.69;67.69
64294;BME280;50636;45.596;5.258;2023-02-02T04:19:10;100055.41;;;4.73;66.87
64294;BME280;50636;45.596;5.258;2023-02-02T04:21:38;100043.28;;;4.63;67.01
64294;BME280;50636;45.596;5.258;2023-02-02T04:24:05;100047.94;;;4.69;64.44
64294;BME280;50636;45.596;5.258;2023-02-02T04:26:31;100046.47;;;4.45;64.13
64294;BME280;50636;45.596;5.258;2023-02-02T04:28:56;100054.69;;;4.29;65.19
64294;BME280;50636;45.596;5.258;2023-02-02T04:31:25;100053.31;;;4.25;64.94
64294;BME280;50636;45.596;5.258;2023-02-02T04:33:51;100052.00;;;4.31;65.33
64294;BME280;50636;45.596;5.258;2023-02-02T04:36:17;100045.81;;;4.32;65.05
64294;BME280;50636;45.596;5.258;2023-02-02T04:38:42;100057.59;;;4.15;64.42
64294;BME280;50636;45.596;5.258;2023-02-02T04:41:10;100058.94;;;4.09;65.25
64294;BME280;50636;45.596;5.258;2023-02-02T04:43:38;100060.91;;;3.85;65.55
64294;BME280;50636;45.596;5.258;2023-02-02T04:46:04;100065.91;;;3.54;66.93
64294;BME280;50636;45.596;5.258;2023-02-02T04:48:30;100059.59;;;3.35;69.12
64294;BME280;50636;45.596;5.258;2023-02-02T04:51:04;100049.91;;;3.37;68.85
64294;BME280;50636;45.596;5.258;2023-02-02T04:53:31;100054.72;;;3.53;68.94
64294;BME280;50636;45.596;5.258;2023-02-02T04:55:57;100049.31;;;3.56;67.42
64294;BME280;50636;45.596;5.258;2023-02-02T04:58:23;100058.50;;;3.60;67.87
64294;BME280;50636;45.596;5.258;2023-02-02T05:00:48;100051.91;;;3.56;67.48
64294;BME280;50636;45.596;5.258;2023-02-02T05:03:14;100051.44;;;3.51;66.85
64294;BME280;50636;45.596;5.258;2023-02-02T05:05:40;100053.91;;;3.42;67.46
64294;BME280;50636;45.596;5.258;2023-02-02T05:08:06;100057.94;;;3.34;67.69
64294;BME280;50636;45.596;5.258;2023-02-02T05:10:34;100056.19;;;3.35;68.33
64294;BME280;50636;45.596;5.258;2023-02-02T05:12:59;100057.03;;;3.24;68.84
64294;BME280;50636;45.596;5.258;2023-02-02T05:15:25;100062.53;;;3.19;70.11
64294;BME280;50636;45.596;5.258;2023-02-02T05:17:51;100069.84;;;3.37;70.07
64294;BME280;50636;45.596;5.258;2023-02-02T05:20:16;100062.06;;;3.37;68.56
64294;BME280;50636;45.596;5.258;2023-02-02T05:22:42;100056.72;;;3.61;68.37
64294;BME280;50636;45.596;5.258;2023-02-02T05:25:08;100058.06;;;3.88;66.96
64294;BME280;50636;45.596;5.258;2023-02-02T05:27:34;100058.53;;;3.93;67.20
64294;BME280;50636;45.596;5.258;2023-02-02T05:30:00;100057.75;;;4.02;67.78
64294;BME280;50636;45.596;5.258;2023-02-02T05:32:26;100065.06;;;4.08;67.88
64294;BME280;50636;45.596;5.258;2023-02-02T05:34:55;100066.63;;;3.99;67.34
64294;BME280;50636;45.596;5.258;2023-02-02T05:37:20;100066.41;;;4.03;67.55
64294;BME280;50636;45.596;5.258;2023-02-02T05:39:46;100063.25;;;3.88;68.03
64294;BME280;50636;45.596;5.258;2023-02-02T05:42:12;100064.66;;;3.92;67.26
64294;BME280;50636;45.596;5.258;2023-02-02T05:44:37;100069.81;;;4.03;65.30
64294;BME280;50636;45.596;5.258;2023-02-02T05:47:03;100065.81;;;3.99;65.75
64294;BME280;50636;45.596;5.258;2023-02-02T05:49:28;100074.34;;;3.90;67.08
64294;BME280;50636;45.596;5.258;2023-02-02T05:51:56;100074.69;;;3.96;66.40
64294;BME280;50636;45.596;5.258;2023-02-02T05:54:23;100066.97;;;4.06;67.12
64294;BME280;50636;45.596;5.258;2023-02-02T05:56:51;100076.81;;;4.24;64.98
64294;BME280;50636;45.596;5.258;2023-02-02T05:59:19;100067.66;;;4.08;64.31
64294;BME280;50636;45.596;5.258;2023-02-02T06:01:45;100077.13;;;3.98;65.81
64294;BME280;50636;45.596;5.258;2023-02-02T06:04:11;100076.81;;;3.91;66.32
64294;BME280;50636;45.596;5.258;2023-02-02T06:06:37;100084.69;;;4.01;65.12
64294;BME280;50636;45.596;5.258;2023-02-02T06:09:04;100086.84;;;3.96;65.63
64294;BME280;50636;45.596;5.258;2023-02-02T06:11:30;100085.50;;;4.02;65.08
64294;BME280;50636;45.596;5.258;2023-02-02T06:13:56;100094.69;;;4.17;64.93
64294;BME280;50636;45.596;5.258;2023-02-02T06:16:21;100093.81;;;4.28;64.13
64294;BME280;50636;45.596;5.258;2023-02-02T06:18:47;100093.41;;;4.11;64.55
64294;BME280;50636;45.596;5.258;2023-02-02T06:21:13;100098.56;;;4.23;64.74
64294;BME280;50636;45.596;5.258;2023-02-02T06:23:39;100089.88;;;4.33;63.85
64294;BME280;50636;45.596;5.258;2023-02-02T06:26:14;100093.09;;;4.26;63.59
64294;BME280;50636;45.596;5.258;2023-02-02T06:28:42;100092.16;;;4.27;63.63
64294;BME280;50636;45.596;5.258;2023-02-02T06:31:09;100091.22;;;4.28;63.81
64294;BME280;50636;45.596;5.258;2023-02-02T06:33:36;100091.97;;;4.39;64.65
64294;BME280;50636;45.596;5.258;2023-02-02T06:36:04;100091.34;;;4.47;63.89
64294;BME280;50636;45.596;5.258;2023-02-02T06:38:31;100097.00;;;4.52;64.50
64294;BME280;50636;45.596;5.258;2023-02-02T06:41:02;100098.84;;;4.62;64.16
64294;BME280;50636;45.596;5.258;2023-02-02T06:43:29;100092.38;;;4.77;64.25
64294;BME280;50636;45.596;5.258;2023-02-02T06:45:58;100094.25;;;4.96;63.65
64294;BME280;50636;45.596;5.258;2023-02-02T06:48:25;100093.28;;;4.97;63.10
64294;BME280;50636;45.596;5.258;2023-02-02T06:50:51;100092.41;;;4.87;62.68
64294;BME280;50636;45.596;5.258;2023-02-02T06:53:21;100094.41;;;4.73;62.57
64294;BME280;50636;45.596;5.258;2023-02-02T06:56:03;100101.06;;;4.45;63.12
64294;BME280;50636;45.596;5.258;2023-02-02T06:58:30;100106.19;;;4.35;63.20
64294;BME280;50636;45.596;5.258;2023-02-02T07:01:08;100115.59;;;4.36;64.41
64294;BME280;50636;45.596;5.258;2023-02-02T07:03:36;100113.16;;;4.35;65.33
64294;BME280;50636;45.596;5.258;2023-02-02T07:06:18;100116.47;;;4.37;65.89
64294;BME280;50636;45.596;5.258;2023-02-02T07:08:45;100118.09;;;4.38;65.32
64294;BME280;50636;45.596;5.258;2023-02-02T07:11:12;100124.19;;;4.16;65.79
64294;BME280;50636;45.596;5.258;2023-02-02T07:13:39;100119.09;;;4.26;66.08
64294;BME280;50636;45.596;5.258;2023-02-02T07:16:06;100127.56;;;4.60;65.38
64294;BME280;50636;45.596;5.258;2023-02-02T07:18:35;100126.28;;;4.54;65.82
64294;BME280;50636;45.596;5.258;2023-02-02T07:21:23;100126.97;;;4.56;65.66
64294;BME280;50636;45.596;5.258;2023-02-02T07:23:49;100129.16;;;4.93;66.75
64294;BME280;50636;45.596;5.258;2023-02-02T07:26:18;100127.72;;;5.41;64.83
64294;BME280;50636;45.596;5.258;2023-02-02T07:28:47;100132.94;;;5.91;64.20
64294;BME280;50636;45.596;5.258;2023-02-02T07:31:21;100132.06;;;6.12;63.31
64294;BME280;50636;45.596;5.258;2023-02-02T07:33:48;100135.88;;;6.27;61.65
64294;BME280;50636;45.596;5.258;2023-02-02T07:36:16;100136.19;;;6.24;58.78
64294;BME280;50636;45.596;5.258;2023-02-02T07:38:44;100140.22;;;5.88;59.72
64294;BME280;50636;45.596;5.258;2023-02-02T07:41:11;100140.28;;;5.67;60.20
64294;BME280;50636;45.596;5.258;2023-02-02T07:43:41;100136.16;;;5.64;61.18
64294;BME280;50636;45.596;5.258;2023-02-02T07:46:07;100144.22;;;5.61;60.79
64294;BME280;50636;45.596;5.258;2023-02-02T07:48:37;100147.81;;;5.60;61.27
64294;BME280;50636;45.596;5.258;2023-02-02T07:51:06;100152.19;;;5.59;61.55
64294;BME280;50636;45.596;5.258;2023-02-02T07:53:33;100153.59;;;5.73;62.53
64294;BME280;50636;45.596;5.258;2023-02-02T07:56:15;100151.03;;;5.93;61.98
64294;BME280;50636;45.596;5.258;2023-02-02T07:58:42;100148.94;;;6.27;61.81
64294;BME280;50636;45.596;5.258;2023-02-02T08:01:11;100143.44;;;6.59;61.26
64294;BME280;50636;45.596;5.258;2023-02-02T08:03:37;100156.72;;;6.95;60.87
64294;BME280;50636;45.596;5.258;2023-02-02T08:06:13;100157.84;;;7.30;60.50
64294;BME280;50636;45.596;5.258;2023-02-02T08:08:41;100155.00;;;7.61;60.04
64294;BME280;50636;45.596;5.258;2023-02-02T08:11:08;100160.66;;;7.84;58.86
64294;BME280;50636;45.596;5.258;2023-02-02T08:13:36;100159.34;;;7.98;58.20
64294;BME280;50636;45.596;5.258;2023-02-02T08:16:18;100163.00;;;8.05;58.47
64294;BME280;50636;45.596;5.258;2023-02-02T08:18:44;100156.97;;;8.23;58.20
64294;BME280;50636;45.596;5.258;2023-02-02T08:21:10;100154.25;;;8.42;56.87
64294;BME280;50636;45.596;5.258;2023-02-02T08:23:38;100150.63;;;8.61;56.08
64294;BME280;50636;45.596;5.258;2023-02-02T08:26:06;100151.22;;;8.73;56.65
64294;BME280;50636;45.596;5.258;2023-02-02T08:28:32;100152.94;;;9.08;56.71
64294;BME280;50636;45.596;5.258;2023-02-02T08:31:25;100141.56;;;9.52;55.55
64294;BME280;50636;45.596;5.258;2023-02-02T08:33:49;100143.19;;;10.04;55.28
64294;BME280;50636;45.596;5.258;2023-02-02T08:36:20;100142.13;;;10.39;53.08
64294;BME280;50636;45.596;5.258;2023-02-02T08:38:48;100138.72;;;11.35;52.83
64294;BME280;50636;45.596;5.258;2023-02-02T08:41:16;100136.94;;;12.53;50.38
64294;BME280;50636;45.596;5.258;2023-02-02T08:43:42;100137.50;;;13.16;48.99
64294;BME280;50636;45.596;5.258;2023-02-02T08:46:10;100127.09;;;13.89;47.48
64294;BME280;50636;45.596;5.258;2023-02-02T08:48:36;100131.19;;;14.77;45.03
64294;BME280;50636;45.596;5.258;2023-02-02T08:51:03;100125.69;;;15.84;42.99
64294;BME280;50636;45.596;5.258;2023-02-02T08:53:29;100133.94;;;16.75;40.01
64294;BME280;50636;45.596;5.258;2023-02-02T08:56:02;100128.75;;;17.34;38.52
64294;BME280;50636;45.596;5.258;2023-02-02T08:58:29;100137.56;;;17.80;37.87
64294;BME280;50636;45.596;5.258;2023-02-02T09:01:03;100143.88;;;17.78;37.06
64294;BME280;50636;45.596;5.258;2023-02-02T09:03:30;100147.38;;;17.07;36.41
64294;BME280;50636;45.596;5.258;2023-02-02T09:05:56;100152.69;;;16.34;36.80
64294;BME280;50636;45.596;5.258;2023-02-02T09:08:21;100152.78;;;15.86;37.81
64294;BME280;50636;45.596;5.258;2023-02-02T09:10:47;100160.31;;;15.89;38.24
64294;BME280;50636;45.596;5.258;2023-02-02T09:13:12;100157.75;;;15.26;38.93
64294;BME280;50636;45.596;5.258;2023-02-02T09:15:38;100154.97;;;15.41;40.13
64294;BME280;50636;45.596;5.258;2023-02-02T09:18:04;100159.19;;;16.25;37.85
64294;BME280;50636;45.596;5.258;2023-02-02T09:20:29;100163.25;;;17.34;37.63
64294;BME280;50636;45.596;5.258;2023-02-02T09:22:56;100147.66;;;18.41;36.00
64294;BME280;50636;45.596;5.258;2023-02-02T09:25:23;100142.31;;;19.16;35.39
64294;BME280;50636;45.596;5.258;2023-02-02T09:27:49;100144.00;;;19.66;34.01
64294;BME280;50636;45.596;5.258;2023-02-02T09:30:16;100143.03;;;20.09;33.64
64294;BME280;50636;45.596;5.258;2023-02-02T09:32:41;100148.59;;;20.50;32.48
64294;BME280;50636;45.596;5.258;2023-02-02T09:35:07;100156.50;;;20.57;32.58
64294;BME280;50636;45.596;5.258;2023-02-02T09:37:33;100153.75;;;20.99;31.22
64294;BME280;50636;45.596;5.258;2023-02-02T09:39:59;100148.47;;;21.51;31.35
64294;BME280;50636;45.596;5.258;2023-02-02T09:47:51;100149.56;;;22.70;29.35
64294;BME280;50636;45.596;5.258;2023-02-02T09:50:36;100142.56;;;22.86;29.65
64294;BME280;50636;45.596;5.258;2023-02-02T09:55:42;100146.31;;;23.46;28.33
64294;BME280;50636;45.596;5.258;2023-02-02T09:58:24;100149.69;;;23.80;28.32
64294;BME280;50636;45.596;5.258;2023-02-02T10:01:10;100152.91;;;24.37;26.81
64294;BME280;50636;45.596;5.258;2023-02-02T10:03:59;100153.75;;;24.37;27.25
64294;BME280;50636;45.596;5.258;2023-02-02T10:06:39;100156.41;;;24.05;26.39
64294;BME280;50636;45.596;5.258;2023-02-02T10:12:15;100152.78;;;23.94;26.72
64294;BME280;50636;45.596;5.258;2023-02-02T10:14:49;100155.25;;;24.23;26.59
64294;BME280;50636;45.596;5.258;2023-02-02T10:17:39;100157.06;;;24.49;26.13
64294;BME280;50636;45.596;5.258;2023-02-02T10:20:46;100161.94;;;24.52;26.26
64294;BME280;50636;45.596;5.258;2023-02-02T10:23:26;100167.81;;;24.87;25.95
64294;BME280;50636;45.596;5.258;2023-02-02T10:26:19;100169.38;;;25.20;24.84
64294;BME280;50636;45.596;5.258;2023-02-02T10:34:56;100168.81;;;24.43;25.74
64294;BME280;50636;45.596;5.258;2023-02-02T10:37:18;100172.31;;;24.44;25.65
64294;BME280;50636;45.596;5.258;2023-02-02T10:45:38;100172.44;;;24.91;25.21
64294;BME280;50636;45.596;5.258;2023-02-02T10:48:20;100161.63;;;24.81;25.20
64294;BME280;50636;45.596;5.258;2023-02-02T10:50:53;100153.75;;;25.12;25.06
64294;BME280;50636;45.596;5.258;2023-02-02T10:53:19;100145.81;;;25.33;24.66
64294;BME280;50636;45.596;5.258;2023-02-02T10:58:29;100137.84;;;24.63;24.28
64294;BME280;50636;45.596;5.258;2023-02-02T11:00:57;100139.53;;;23.82;25.10
64294;BME280;50636;45.596;5.258;2023-02-02T11:03:30;100139.47;;;23.11;25.71
64294;BME280;50636;45.596;5.258;2023-02-02T11:06:01;100136.41;;;22.34;26.94
64294;BME280;50636;45.596;5.258;2023-02-02T11:08:48;100139.16;;;21.94;27.84
64294;BME280;50636;45.596;5.258;2023-02-02T11:11:42;100145.31;;;21.66;28.35
64294;BME280;50636;45.596;5.258;2023-02-02T11:14:16;100143.44;;;21.95;28.23
64294;BME280;50636;45.596;5.258;2023-02-02T11:16:46;100147.63;;;22.48;27.31
64294;BME280;50636;45.596;5.258;2023-02-02T11:19:27;100138.34;;;22.73;27.11
64294;BME280;50636;45.596;5.258;2023-02-02T11:21:56;100139.22;;;22.96;27.09
64294;BME280;50636;45.596;5.258;2023-02-02T11:24:46;100148.66;;;22.81;26.53
64294;BME280;50636;45.596;5.258;2023-02-02T11:27:13;100154.75;;;22.43;26.59
64294;BME280;50636;45.596;5.258;2023-02-02T11:32:25;100163.41;;;21.76;28.37
64294;BME280;50636;45.596;5.258;2023-02-02T11:37:38;100162.38;;;22.34;27.04
64294;BME280;50636;45.596;5.258;2023-02-02T11:43:16;100141.28;;;22.71;26.08
64294;BME280;50636;45.596;5.258;2023-02-02T11:45:43;100149.81;;;22.23;26.71
64294;BME280;50636;45.596;5.258;2023-02-02T11:48:18;100146.91;;;22.07;27.14
64294;BME280;50636;45.596;5.258;2023-02-02T11:50:47;100141.66;;;21.84;27.59
64294;BME280;50636;45.596;5.258;2023-02-02T11:53:28;100154.44;;;21.82;27.89
64294;BME280;50636;45.596;5.258;2023-02-02T11:55:58;100158.00;;;21.47;28.00
64294;BME280;50636;45.596;5.258;2023-02-02T11:58:27;100145.72;;;21.22;28.10
64294;BME280;50636;45.596;5.258;2023-02-02T12:00:58;100153.75;;;21.10;28.48
64294;BME280;50636;45.596;5.258;2023-02-02T12:03:32;100136.41;;;21.37;28.24
64294;BME280;50636;45.596;5.258;2023-02-02T12:05:58;100148.03;;;21.54;27.71
64294;BME280;50636;45.596;5.258;2023-02-02T12:08:27;100155.69;;;21.50;28.22
64294;BME280;50636;45.596;5.258;2023-02-02T12:11:03;100150.34;;;21.50;28.32
64294;BME280;50636;45.596;5.258;2023-02-02T12:13:58;100144.97;;;20.44;28.60
64294;BME280;50636;45.596;5.258;2023-02-02T12:16:36;100153.97;;;18.72;30.90
64294;BME280;50636;45.596;5.258;2023-02-02T12:24:33;100115.81;;;18.85;31.85
64294;BME280;50636;45.596;5.258;2023-02-02T12:38:15;100120.09;;;19.60;30.24
64294;BME280;50636;45.596;5.258;2023-02-02T12:43:46;100114.16;;;19.94;28.96
64294;BME280;50636;45.596;5.258;2023-02-02T12:55:39;100137.81;;;16.66;34.62
64294;BME280;50636;45.596;5.258;2023-02-02T12:58:18;100136.97;;;16.32;35.61
64294;BME280;50636;45.596;5.258;2023-02-02T13:04:31;100133.81;;;15.89;37.22
64294;BME280;50636;45.596;5.258;2023-02-02T13:09:50;100113.56;;;16.56;35.69
64294;BME280;50636;45.596;5.258;2023-02-02T13:12:25;100124.97;;;16.36;36.47
64294;BME280;50636;45.596;5.258;2023-02-02T13:14:56;100129.25;;;16.71;36.35
64294;BME280;50636;45.596;5.258;2023-02-02T13:17:41;100119.66;;;16.96;35.46
64294;BME280;50636;45.596;5.258;2023-02-02T13:22:55;100123.53;;;16.67;35.60
64294;BME280;50636;45.596;5.258;2023-02-02T13:25:30;100116.00;;;16.44;35.96
64294;BME280;50636;45.596;5.258;2023-02-02T13:27:59;100116.53;;;16.00;36.80
64294;BME280;50636;45.596;5.258;2023-02-02T13:30:52;100111.31;;;15.65;37.20
64294;BME280;50636;45.596;5.258;2023-02-02T13:33:32;100106.19;;;15.15;38.51
64294;BME280;50636;45.596;5.258;2023-02-02T13:36:04;100110.09;;;14.84;38.82
64294;BME280;50636;45.596;5.258;2023-02-02T13:38:33;100106.72;;;14.69;39.25
64294;BME280;50636;45.596;5.258;2023-02-02T13:41:06;100105.59;;;14.56;40.04
64294;BME280;50636;45.596;5.258;2023-02-02T13:43:42;100108.75;;;14.45;40.07
64294;BME280;50636;45.596;5.258;2023-02-02T13:46:24;100122.59;;;14.26;40.10
64294;BME280;50636;45.596;5.258;2023-02-02T13:49:21;100128.81;;;13.96;40.88
64294;BME280;50636;45.596;5.258;2023-02-02T13:55:30;100120.16;;;13.66;41.78
64294;BME280;50636;45.596;5.258;2023-02-02T13:58:32;100118.38;;;13.73;42.18
64294;BME280;50636;45.596;5.258;2023-02-02T14:01:04;100132.44;;;13.95;40.97
64294;BME280;50636;45.596;5.258;2023-02-02T14:03:41;100124.69;;;13.94;40.79
64294;BME280;50636;45.596;5.258;2023-02-02T14:06:19;100127.22;;;13.81;41.33
64294;BME280;50636;45.596;5.258;2023-02-02T14:11:34;100130.75;;;14.52;39.97
64294;BME280;50636;45.596;5.258;2023-02-02T14:14:15;100131.31;;;14.48;39.68
64294;BME280;50636;45.596;5.258;2023-02-02T14:16:57;100142.84;;;14.18;40.49
64294;BME280;50636;45.596;5.258;2023-02-02T14:24:49;100145.03;;;13.78;41.36
64294;BME280;50636;45.596;5.258;2023-02-02T14:37:55;100151.94;;;13.94;41.65
64294;BME280;50636;45.596;5.258;2023-02-02T14:43:20;100156.25;;;13.66;42.22
64294;BME280;50636;45.596;5.258;2023-02-02T14:48:45;100154.63;;;13.65;41.77
64294;BME280;50636;45.596;5.258;2023-02-02T14:56:15;100165.91;;;13.58;41.72
64294;BME280;50636;45.596;5.258;2023-02-02T15:01:23;100171.34;;;13.57;41.13
64294;BME280;50636;45.596;5.258;2023-02-02T15:22:53;100186.03;;;13.07;40.62
64294;BME280;50636;45.596;5.258;2023-02-02T15:25:40;100183.66;;;13.12;40.63
64294;BME280;50636;45.596;5.258;2023-02-02T15:34:02;100186.38;;;13.04;41.07
64294;BME280;50636;45.596;5.258;2023-02-02T15:36:35;100185.09;;;12.99;41.55
64294;BME280;50636;45.596;5.258;2023-02-02T15:39:26;100183.00;;;12.95;41.54
64294;BME280;50636;45.596;5.258;2023-02-02T15:41:54;100192.09;;;12.92;41.71
64294;BME280;50636;45.596;5.258;2023-02-02T15:44:41;100184.66;;;12.96;42.07
64294;BME280;50636;45.596;5.258;2023-02-02T15:47:17;100181.56;;;13.07;42.28
64294;BME280;50636;45.596;5.258;2023-02-02T15:49:44;100185.47;;;13.11;41.99